WetterOnline ( https://www.wetteronline.de )

Wetter aktuell Schauren

Aktuelles Wetter: Deuselbach (483m)

6-stündlich | Neueste Meldungen
Ortszeit Temperatur Wetter
Mi, 08.12. 13:00 3.8° C bewölkt
Mi, 08.12. 7:00 4.0° C bewölkt
Mi, 08.12. 1:00 2.7° C leichter Regen
Di, 07.12. 19:00 2.1° C bewölkt
Di, 07.12. 13:00 2.3° C bewölkt
Di, 07.12. 7:00 1.3° C leicht bewölkt
Di, 07.12. 1:00 0.9° C Schneefall
Mo, 06.12. 19:00 0.8° C bedeckt
Ortszeit Temperatur Wetter
Mi, 08.12. 13:00 3.8° C bewölkt
Mi, 08.12. 12:50 3.8° C bewölkt
Mi, 08.12. 12:40 3.8° C bedeckt
Mi, 08.12. 12:30 3.7° C bewölkt
Mi, 08.12. 12:20 3.7° C bewölkt
Mi, 08.12. 12:10 3.8° C bewölkt
Mi, 08.12. 12:00 3.7° C wolkig
Mi, 08.12. 11:30 3.5° C bedeckt
Mi, 08.12. 11:00 3.5° C bedeckt
Mi, 08.12. 10:30 3.5° C wolkig
Mi, 08.12. 10:00 3.6° C bewölkt
Ortszeit Relative Feuchte Sichtweite
Mi, 08.12. 13:00 83% 40 km
Mi, 08.12. 7:00 87% 40 km
Mi, 08.12. 1:00 90% 9 km
Di, 07.12. 19:00 87% 45 km
Di, 07.12. 13:00 82% 35 km
Di, 07.12. 7:00 91% 35 km
Di, 07.12. 1:00 95% 3.0 km
Mo, 06.12. 19:00 89% 26 km
Ortszeit Relative Feuchte Sichtweite
Mi, 08.12. 13:00 83% 40 km
Mi, 08.12. 12:50 83% -
Mi, 08.12. 12:40 82% -
Mi, 08.12. 12:30 84% 35 km
Mi, 08.12. 12:20 84% -
Mi, 08.12. 12:10 85% -
Mi, 08.12. 12:00 83% 40 km
Mi, 08.12. 11:30 84% 40 km
Mi, 08.12. 11:00 85% 45 km
Mi, 08.12. 10:30 85% 40 km
Mi, 08.12. 10:00 84% 40 km
Ortszeit Niederschlagsmenge Niederschlagsart
Mi, 08.12. 13:00 0.0 l/m2 in 6 Std. -
Mi, 08.12. 7:00 2 l/m2 in 12 Std. Schnee, Regen
Mi, 08.12. 1:00 2 l/m2 in 6 Std. Schnee, Regen
Di, 07.12. 19:00 0.1 l/m2 in 12 Std. Sprühregen
Di, 07.12. 13:00 0.1 l/m2 in 6 Std. -
Di, 07.12. 7:00 2 l/m2 in 12 Std. -
Di, 07.12. 1:00 1 l/m2 in 6 Std. -
Mo, 06.12. 19:00 0.1 l/m2 in 12 Std. -
Ortszeit Niederschlagsmenge Niederschlagsart
Mi, 08.12. 13:00 0.0 l/m2 in 1 Std. -
Mi, 08.12. 12:50 keine Meldung -
Mi, 08.12. 12:40 keine Meldung -
Mi, 08.12. 12:30 0.0 l/m2 in 1 Std. -
Mi, 08.12. 12:20 keine Meldung -
Mi, 08.12. 12:10 keine Meldung -
Mi, 08.12. 12:00 0.0 l/m2 in 1 Std. -
Mi, 08.12. 11:30 0.0 l/m2 in 1 Std. -
Mi, 08.12. 11:00 0.0 l/m2 in 1 Std. -
Mi, 08.12. 10:30 0.0 l/m2 in 1 Std. -
Mi, 08.12. 10:00 0.0 l/m2 in 1 Std. -
Ortszeit Stärke Spitze Richtung
km/h Bft. km/h Grad Sektor
Mi, 08.12. 13:00 13 3 31 210° SW
Mi, 08.12. 7:00 15 3 54 220° SW
Mi, 08.12. 1:00 43 6 70 170° S
Di, 07.12. 19:00 11 2 43 150° SO
Di, 07.12. 13:00 17 3 31 210° SW
Di, 07.12. 7:00 - - - - -
Di, 07.12. 1:00 - - - - -
Mo, 06.12. 19:00 - - - - -
Ortszeit Stärke Spitze Richtung
km/h Bft. km/h Grad Sektor
Mi, 08.12. 13:00 13 3 31 210° SW
Mi, 08.12. 12:50 13 3 - 210° SW
Mi, 08.12. 12:40 13 3 - 210° SW
Mi, 08.12. 12:30 13 3 24 220° SW
Mi, 08.12. 12:20 13 3 - 220° SW
Mi, 08.12. 12:10 9 2 - 210° SW
Mi, 08.12. 12:00 15 3 24 210° SW
Mi, 08.12. 11:30 11 2 25 180° S
Mi, 08.12. 11:00 9 2 26 200° S
Mi, 08.12. 10:30 14 3 25 220° SW
Mi, 08.12. 10:00 13 3 24 220° SW
Ortszeit Untergrenze Bedeckung Gattung
total tief tief mittel hoch
Mi, 08.12. 13:00 780 m 7/8 7/8 - - -
Mi, 08.12. 7:00 600 m 8/8 5/8 - - -
Mi, 08.12. 1:00 570 m 8/8 8/8 - - -
Di, 07.12. 19:00 360 m 8/8 6/8 - - -
Di, 07.12. 13:00 540 m 7/8 7/8 - - -
Di, 07.12. 7:00 900 m 3/8 6/8 - - -
Di, 07.12. 1:00 180 m 8/8 8/8 - - -
Mo, 06.12. 19:00 270 m 8/8 8/8 - - -
Ortszeit Bedeckungsgrad in Achtel und Wolkenuntergrenze
Mi, 08.12. 13:00 7(780m)
Mi, 08.12. 12:50 7(780m)
Mi, 08.12. 12:40 5(690m) 8(840m)
Mi, 08.12. 12:30 5(600m) 7(810m) 7(960m)
Mi, 08.12. 12:20 5(600m) 7(810m) 7(960m)
Mi, 08.12. 12:10 3(600m) 7(960m) 7(4200m)
Mi, 08.12. 12:00 2(750m) 8(4200m) 7(4200m)
Mi, 08.12. 11:30 8(3900m)
Mi, 08.12. 11:00 8(4200m)
Mi, 08.12. 10:30 1(630m) 3(750m) 8(4200m)
Mi, 08.12. 10:00 5(570m) 7(750m) 8(4500m)
Ortszeit Luftdruck NN (hPa) Tendenz (hPa in 3 Std.)
Mi, 08.12. 13:00 1000 + 0,7
Mi, 08.12. 7:00 999 + 0,5
Mi, 08.12. 1:00 998 - 3,1
Di, 07.12. 19:00 1006 - 3,0
Di, 07.12. 13:00 1012 - 1,5
Di, 07.12. 7:00 1012 + 2,3
Di, 07.12. 1:00 1008 - 1,5
Mo, 06.12. 19:00 1013 - 1,7
Ortszeit Luftdruck NN (hPa) Tendenz (hPa in 3 Std.)
Mi, 08.12. 13:00 1000 + 0,7
Mi, 08.12. 12:50 1000 keine Meldung
Mi, 08.12. 12:40 1000 keine Meldung
Mi, 08.12. 12:30 1000 + 1,0
Mi, 08.12. 12:20 1000 keine Meldung
Mi, 08.12. 12:10 1000 keine Meldung
Mi, 08.12. 12:00 1001 + 1,3
Mi, 08.12. 11:30 1000 + 0,6
Mi, 08.12. 11:00 1000 + 1,1
Mi, 08.12. 10:30 1000 + 0,8
Mi, 08.12. 10:00 1000 + 0,7
Ortszeit Schneehöhe (cm)
Mi, 08.12. 13:00 0
Mi, 08.12. 7:00 0
Mi, 08.12. 1:00 0
Di, 07.12. 19:00 0
Di, 07.12. 13:00 0
Di, 07.12. 7:00 0
Di, 07.12. 1:00 0
Mo, 06.12. 19:00 0
Ortszeit Schneehöhe (cm)
Mi, 08.12. 13:00 0
Mi, 08.12. 12:50 0
Mi, 08.12. 12:40 0
Mi, 08.12. 12:30 0
Mi, 08.12. 12:20 0
Mi, 08.12. 12:10 0
Mi, 08.12. 12:00 0
Mi, 08.12. 11:30 0
Mi, 08.12. 11:00 0
Mi, 08.12. 10:30 0
Mi, 08.12. 10:00 0
Link zu dieser Seite / Seite empfehlen

Das Wetter in ...